sensor_id;sensor_type;location;lat;lon;timestamp;P1;durP1;ratioP1;P2;durP2;ratioP2
3343;SDS011;1685;53.104;8.228;2022-07-23T00:02:25;11.13;;;3.70;;
3343;SDS011;1685;53.104;8.228;2022-07-23T00:04:52;9.13;;;3.40;;
3343;SDS011;1685;53.104;8.228;2022-07-23T00:07:19;5.13;;;3.10;;
3343;SDS011;1685;53.104;8.228;2022-07-23T00:09:46;4.67;;;3.97;;
3343;SDS011;1685;53.104;8.228;2022-07-23T00:12:13;7.47;;;3.90;;
3343;SDS011;1685;53.104;8.228;2022-07-23T00:14:40;8.27;;;2.90;;
3343;SDS011;1685;53.104;8.228;2022-07-23T00:17:06;4.97;;;3.80;;
3343;SDS011;1685;53.104;8.228;2022-07-23T00:19:34;6.33;;;3.30;;
3343;SDS011;1685;53.104;8.228;2022-07-23T00:22:01;4.13;;;2.97;;
3343;SDS011;1685;53.104;8.228;2022-07-23T00:24:28;6.60;;;3.70;;
3343;SDS011;1685;53.104;8.228;2022-07-23T00:26:55;3.60;;;2.93;;
3343;SDS011;1685;53.104;8.228;2022-07-23T00:29:22;3.57;;;3.30;;
3343;SDS011;1685;53.104;8.228;2022-07-23T00:31:48;3.20;;;2.67;;
3343;SDS011;1685;53.104;8.228;2022-07-23T00:34:15;3.70;;;3.33;;
3343;SDS011;1685;53.104;8.228;2022-07-23T00:36:43;5.57;;;3.20;;
3343;SDS011;1685;53.104;8.228;2022-07-23T00:39:10;3.77;;;3.37;;
3343;SDS011;1685;53.104;8.228;2022-07-23T00:41:37;3.40;;;3.20;;
3343;SDS011;1685;53.104;8.228;2022-07-23T00:44:16;9.30;;;3.20;;
3343;SDS011;1685;53.104;8.228;2022-07-23T00:46:45;5.87;;;3.50;;
3343;SDS011;1685;53.104;8.228;2022-07-23T00:49:12;8.17;;;3.97;;
3343;SDS011;1685;53.104;8.228;2022-07-23T00:51:39;7.00;;;3.67;;
3343;SDS011;1685;53.104;8.228;2022-07-23T00:54:07;6.80;;;3.90;;
3343;SDS011;1685;53.104;8.228;2022-07-23T00:56:35;6.40;;;3.97;;
3343;SDS011;1685;53.104;8.228;2022-07-23T00:59:02;5.90;;;3.80;;
3343;SDS011;1685;53.104;8.228;2022-07-23T01:01:29;4.13;;;3.77;;
3343;SDS011;1685;53.104;8.228;2022-07-23T01:03:56;4.70;;;3.57;;
3343;SDS011;1685;53.104;8.228;2022-07-23T01:06:23;8.47;;;4.10;;
3343;SDS011;1685;53.104;8.228;2022-07-23T01:08:50;4.10;;;3.50;;
3343;SDS011;1685;53.104;8.228;2022-07-23T01:11:19;6.60;;;4.70;;
3343;SDS011;1685;53.104;8.228;2022-07-23T01:13:46;5.63;;;3.67;;
3343;SDS011;1685;53.104;8.228;2022-07-23T01:16:14;6.33;;;3.90;;
3343;SDS011;1685;53.104;8.228;2022-07-23T01:18:41;4.00;;;3.60;;
3343;SDS011;1685;53.104;8.228;2022-07-23T01:21:08;4.10;;;3.70;;
3343;SDS011;1685;53.104;8.228;2022-07-23T01:23:37;8.93;;;4.40;;
3343;SDS011;1685;53.104;8.228;2022-07-23T01:26:03;6.87;;;3.70;;
3343;SDS011;1685;53.104;8.228;2022-07-23T01:28:30;5.80;;;4.53;;
3343;SDS011;1685;53.104;8.228;2022-07-23T01:30:57;5.37;;;4.20;;
3343;SDS011;1685;53.104;8.228;2022-07-23T01:33:24;11.60;;;4.80;;
3343;SDS011;1685;53.104;8.228;2022-07-23T01:35:51;5.63;;;4.50;;
3343;SDS011;1685;53.104;8.228;2022-07-23T01:38:17;6.67;;;4.50;;
3343;SDS011;1685;53.104;8.228;2022-07-23T01:40:45;9.43;;;5.00;;
3343;SDS011;1685;53.104;8.228;2022-07-23T01:43:12;4.17;;;3.67;;
3343;SDS011;1685;53.104;8.228;2022-07-23T01:45:39;5.87;;;4.63;;
3343;SDS011;1685;53.104;8.228;2022-07-23T01:48:07;5.50;;;4.97;;
3343;SDS011;1685;53.104;8.228;2022-07-23T01:50:35;5.10;;;4.70;;
3343;SDS011;1685;53.104;8.228;2022-07-23T01:53:02;6.40;;;5.13;;
3343;SDS011;1685;53.104;8.228;2022-07-23T01:55:29;6.23;;;5.60;;
3343;SDS011;1685;53.104;8.228;2022-07-23T01:57:57;5.90;;;5.30;;
3343;SDS011;1685;53.104;8.228;2022-07-23T02:00:24;5.67;;;5.20;;
3343;SDS011;1685;53.104;8.228;2022-07-23T02:02:51;6.20;;;5.17;;
3343;SDS011;1685;53.104;8.228;2022-07-23T02:05:18;9.23;;;6.00;;
3343;SDS011;1685;53.104;8.228;2022-07-23T02:07:45;6.80;;;6.30;;
3343;SDS011;1685;53.104;8.228;2022-07-23T02:10:12;10.63;;;5.93;;
3343;SDS011;1685;53.104;8.228;2022-07-23T02:12:39;9.83;;;6.00;;
3343;SDS011;1685;53.104;8.228;2022-07-23T02:15:08;10.70;;;6.20;;
3343;SDS011;1685;53.104;8.228;2022-07-23T02:17:35;6.07;;;5.50;;
3343;SDS011;1685;53.104;8.228;2022-07-23T02:20:02;8.43;;;6.00;;
3343;SDS011;1685;53.104;8.228;2022-07-23T02:22:30;14.87;;;6.57;;
3343;SDS011;1685;53.104;8.228;2022-07-23T02:24:57;6.73;;;6.03;;
3343;SDS011;1685;53.104;8.228;2022-07-23T02:27:24;6.80;;;6.17;;
3343;SDS011;1685;53.104;8.228;2022-07-23T02:29:51;12.73;;;6.67;;
3343;SDS011;1685;53.104;8.228;2022-07-23T02:32:19;11.70;;;6.50;;
3343;SDS011;1685;53.104;8.228;2022-07-23T02:34:47;7.70;;;6.10;;
3343;SDS011;1685;53.104;8.228;2022-07-23T02:37:14;11.93;;;6.23;;
3343;SDS011;1685;53.104;8.228;2022-07-23T02:39:41;9.77;;;5.77;;
3343;SDS011;1685;53.104;8.228;2022-07-23T02:42:08;11.50;;;6.60;;
3343;SDS011;1685;53.104;8.228;2022-07-23T02:44:35;6.50;;;5.80;;
3343;SDS011;1685;53.104;8.228;2022-07-23T02:47:02;9.30;;;6.60;;
3343;SDS011;1685;53.104;8.228;2022-07-23T02:49:31;7.07;;;6.47;;
3343;SDS011;1685;53.104;8.228;2022-07-23T02:51:57;18.30;;;6.97;;
3343;SDS011;1685;53.104;8.228;2022-07-23T02:54:24;9.07;;;5.97;;
3343;SDS011;1685;53.104;8.228;2022-07-23T02:56:52;8.87;;;6.43;;
3343;SDS011;1685;53.104;8.228;2022-07-23T02:59:19;9.67;;;6.50;;
3343;SDS011;1685;53.104;8.228;2022-07-23T03:01:46;8.00;;;6.27;;
3343;SDS011;1685;53.104;8.228;2022-07-23T03:04:13;12.70;;;6.50;;
3343;SDS011;1685;53.104;8.228;2022-07-23T03:06:41;6.57;;;5.87;;
3343;SDS011;1685;53.104;8.228;2022-07-23T03:09:08;9.47;;;7.00;;
3343;SDS011;1685;53.104;8.228;2022-07-23T03:11:35;11.40;;;7.70;;
3343;SDS011;1685;53.104;8.228;2022-07-23T03:14:02;9.97;;;6.70;;
3343;SDS011;1685;53.104;8.228;2022-07-23T03:16:30;12.53;;;6.90;;
3343;SDS011;1685;53.104;8.228;2022-07-23T03:18:58;11.27;;;6.97;;
3343;SDS011;1685;53.104;8.228;2022-07-23T03:21:25;7.20;;;6.50;;
3343;SDS011;1685;53.104;8.228;2022-07-23T03:23:53;9.90;;;6.00;;
3343;SDS011;1685;53.104;8.228;2022-07-23T03:26:20;8.73;;;5.67;;
3343;SDS011;1685;53.104;8.228;2022-07-23T03:28:50;13.00;;;6.90;;
3343;SDS011;1685;53.104;8.228;2022-07-23T03:31:18;7.67;;;5.80;;
3343;SDS011;1685;53.104;8.228;2022-07-23T03:33:45;11.37;;;6.07;;
3343;SDS011;1685;53.104;8.228;2022-07-23T03:36:12;11.87;;;7.47;;
3343;SDS011;1685;53.104;8.228;2022-07-23T03:38:39;7.70;;;6.40;;
3343;SDS011;1685;53.104;8.228;2022-07-23T03:41:07;15.13;;;7.20;;
3343;SDS011;1685;53.104;8.228;2022-07-23T03:43:34;7.10;;;5.83;;
3343;SDS011;1685;53.104;8.228;2022-07-23T03:46:01;8.20;;;7.33;;
3343;SDS011;1685;53.104;8.228;2022-07-23T03:48:28;9.30;;;7.50;;
3343;SDS011;1685;53.104;8.228;2022-07-23T03:50:54;7.77;;;6.97;;
3343;SDS011;1685;53.104;8.228;2022-07-23T03:53:21;8.60;;;6.60;;
3343;SDS011;1685;53.104;8.228;2022-07-23T03:55:48;8.67;;;6.80;;
3343;SDS011;1685;53.104;8.228;2022-07-23T03:58:17;8.63;;;7.10;;
3343;SDS011;1685;53.104;8.228;2022-07-23T04:00:43;8.20;;;7.40;;
3343;SDS011;1685;53.104;8.228;2022-07-23T04:03:11;12.43;;;7.73;;
3343;SDS011;1685;53.104;8.228;2022-07-23T04:05:38;7.67;;;6.87;;
3343;SDS011;1685;53.104;8.228;2022-07-23T04:08:05;7.93;;;6.30;;
3343;SDS011;1685;53.104;8.228;2022-07-23T04:10:32;13.40;;;7.23;;
3343;SDS011;1685;53.104;8.228;2022-07-23T04:12:59;8.97;;;7.33;;
3343;SDS011;1685;53.104;8.228;2022-07-23T04:15:27;9.30;;;7.40;;
3343;SDS011;1685;53.104;8.228;2022-07-23T04:17:54;7.73;;;6.90;;
3343;SDS011;1685;53.104;8.228;2022-07-23T04:20:21;9.17;;;7.20;;
3343;SDS011;1685;53.104;8.228;2022-07-23T04:22:48;9.80;;;8.10;;
3343;SDS011;1685;53.104;8.228;2022-07-23T04:25:15;10.90;;;8.33;;
3343;SDS011;1685;53.104;8.228;2022-07-23T04:27:42;13.10;;;7.73;;
3343;SDS011;1685;53.104;8.228;2022-07-23T04:30:10;9.33;;;7.20;;
3343;SDS011;1685;53.104;8.228;2022-07-23T04:32:38;13.33;;;8.37;;
3343;SDS011;1685;53.104;8.228;2022-07-23T04:35:05;9.93;;;8.87;;
3343;SDS011;1685;53.104;8.228;2022-07-23T04:37:31;7.50;;;6.70;;
3343;SDS011;1685;53.104;8.228;2022-07-23T04:39:59;18.00;;;8.60;;
3343;SDS011;1685;53.104;8.228;2022-07-23T04:42:26;14.47;;;7.57;;
3343;SDS011;1685;53.104;8.228;2022-07-23T04:44:53;10.00;;;8.20;;
3343;SDS011;1685;53.104;8.228;2022-07-23T04:47:20;15.63;;;7.77;;
3343;SDS011;1685;53.104;8.228;2022-07-23T04:49:48;8.93;;;7.80;;
3343;SDS011;1685;53.104;8.228;2022-07-23T04:52:15;12.40;;;7.50;;
3343;SDS011;1685;53.104;8.228;2022-07-23T04:54:42;11.00;;;8.67;;
3343;SDS011;1685;53.104;8.228;2022-07-23T04:57:09;11.03;;;8.13;;
3343;SDS011;1685;53.104;8.228;2022-07-23T04:59:36;18.30;;;8.43;;
3343;SDS011;1685;53.104;8.228;2022-07-23T05:02:03;28.40;;;9.47;;
3343;SDS011;1685;53.104;8.228;2022-07-23T05:04:30;13.30;;;8.57;;
3343;SDS011;1685;53.104;8.228;2022-07-23T05:06:58;12.83;;;9.43;;
3343;SDS011;1685;53.104;8.228;2022-07-23T05:09:25;14.13;;;9.00;;
3343;SDS011;1685;53.104;8.228;2022-07-23T05:11:52;12.63;;;8.40;;
3343;SDS011;1685;53.104;8.228;2022-07-23T05:14:19;14.30;;;8.93;;
3343;SDS011;1685;53.104;8.228;2022-07-23T05:16:46;14.60;;;9.70;;
3343;SDS011;1685;53.104;8.228;2022-07-23T05:19:13;10.43;;;8.67;;
3343;SDS011;1685;53.104;8.228;2022-07-23T05:21:40;14.87;;;8.50;;
3343;SDS011;1685;53.104;8.228;2022-07-23T05:24:08;10.70;;;8.27;;
3343;SDS011;1685;53.104;8.228;2022-07-23T05:26:35;15.17;;;9.37;;
3343;SDS011;1685;53.104;8.228;2022-07-23T05:29:02;10.77;;;7.80;;
3343;SDS011;1685;53.104;8.228;2022-07-23T05:31:29;19.10;;;9.27;;
3343;SDS011;1685;53.104;8.228;2022-07-23T05:33:56;10.20;;;9.13;;
3343;SDS011;1685;53.104;8.228;2022-07-23T05:36:23;17.43;;;8.47;;
3343;SDS011;1685;53.104;8.228;2022-07-23T05:38:50;15.70;;;8.97;;
3343;SDS011;1685;53.104;8.228;2022-07-23T05:41:18;9.00;;;8.10;;
3343;SDS011;1685;53.104;8.228;2022-07-23T05:43:45;11.10;;;8.17;;
3343;SDS011;1685;53.104;8.228;2022-07-23T05:46:12;11.30;;;8.53;;
3343;SDS011;1685;53.104;8.228;2022-07-23T05:48:39;14.30;;;9.67;;
3343;SDS011;1685;53.104;8.228;2022-07-23T05:51:07;9.47;;;7.73;;
3343;SDS011;1685;53.104;8.228;2022-07-23T05:53:34;10.17;;;8.20;;
3343;SDS011;1685;53.104;8.228;2022-07-23T05:56:01;10.53;;;7.53;;
3343;SDS011;1685;53.104;8.228;2022-07-23T05:58:29;8.70;;;7.33;;
3343;SDS011;1685;53.104;8.228;2022-07-23T06:00:56;14.03;;;7.90;;
3343;SDS011;1685;53.104;8.228;2022-07-23T06:03:23;14.30;;;7.90;;
3343;SDS011;1685;53.104;8.228;2022-07-23T06:05:50;9.63;;;6.40;;
3343;SDS011;1685;53.104;8.228;2022-07-23T06:08:16;7.10;;;6.40;;
3343;SDS011;1685;53.104;8.228;2022-07-23T06:10:43;7.70;;;6.90;;
3343;SDS011;1685;53.104;8.228;2022-07-23T06:13:10;8.20;;;6.73;;
3343;SDS011;1685;53.104;8.228;2022-07-23T06:15:39;9.00;;;5.60;;
3343;SDS011;1685;53.104;8.228;2022-07-23T06:18:05;7.50;;;5.57;;
3343;SDS011;1685;53.104;8.228;2022-07-23T06:20:32;8.23;;;5.90;;
3343;SDS011;1685;53.104;8.228;2022-07-23T06:22:59;5.83;;;5.00;;
3343;SDS011;1685;53.104;8.228;2022-07-23T06:25:26;5.30;;;4.50;;
3343;SDS011;1685;53.104;8.228;2022-07-23T06:27:53;4.83;;;4.00;;
3343;SDS011;1685;53.104;8.228;2022-07-23T06:30:19;7.50;;;3.90;;
3343;SDS011;1685;53.104;8.228;2022-07-23T06:32:48;4.97;;;4.43;;
3343;SDS011;1685;53.104;8.228;2022-07-23T06:35:15;5.83;;;4.73;;
3343;SDS011;1685;53.104;8.228;2022-07-23T06:37:42;6.33;;;4.70;;
3343;SDS011;1685;53.104;8.228;2022-07-23T06:40:10;7.63;;;4.97;;
3343;SDS011;1685;53.104;8.228;2022-07-23T06:42:37;4.47;;;4.13;;
3343;SDS011;1685;53.104;8.228;2022-07-23T06:45:05;5.83;;;4.87;;
3343;SDS011;1685;53.104;8.228;2022-07-23T06:47:33;6.03;;;4.33;;
3343;SDS011;1685;53.104;8.228;2022-07-23T06:50:01;6.10;;;4.43;;
3343;SDS011;1685;53.104;8.228;2022-07-23T06:52:28;6.17;;;4.70;;
3343;SDS011;1685;53.104;8.228;2022-07-23T06:54:55;7.70;;;4.20;;
3343;SDS011;1685;53.104;8.228;2022-07-23T06:57:22;5.83;;;4.10;;
3343;SDS011;1685;53.104;8.228;2022-07-23T06:59:50;4.83;;;4.43;;
3343;SDS011;1685;53.104;8.228;2022-07-23T07:02:17;6.37;;;3.87;;
3343;SDS011;1685;53.104;8.228;2022-07-23T07:04:44;8.80;;;4.80;;
3343;SDS011;1685;53.104;8.228;2022-07-23T07:07:12;6.90;;;3.73;;
3343;SDS011;1685;53.104;8.228;2022-07-23T07:09:39;7.80;;;4.27;;
3343;SDS011;1685;53.104;8.228;2022-07-23T07:12:06;4.10;;;3.70;;
3343;SDS011;1685;53.104;8.228;2022-07-23T07:14:33;9.27;;;3.77;;
3343;SDS011;1685;53.104;8.228;2022-07-23T07:17:00;5.47;;;4.17;;
3343;SDS011;1685;53.104;8.228;2022-07-23T07:19:27;9.03;;;4.47;;
3343;SDS011;1685;53.104;8.228;2022-07-23T07:21:54;7.10;;;3.10;;
3343;SDS011;1685;53.104;8.228;2022-07-23T07:24:22;5.00;;;3.23;;
3343;SDS011;1685;53.104;8.228;2022-07-23T07:26:49;4.40;;;3.27;;
3343;SDS011;1685;53.104;8.228;2022-07-23T07:29:16;3.63;;;2.70;;
3343;SDS011;1685;53.104;8.228;2022-07-23T07:31:44;9.23;;;3.30;;
3343;SDS011;1685;53.104;8.228;2022-07-23T07:34:11;2.87;;;2.67;;
3343;SDS011;1685;53.104;8.228;2022-07-23T07:36:37;6.80;;;3.20;;
3343;SDS011;1685;53.104;8.228;2022-07-23T07:39:04;4.30;;;3.90;;
3343;SDS011;1685;53.104;8.228;2022-07-23T07:41:33;5.30;;;3.33;;
3343;SDS011;1685;53.104;8.228;2022-07-23T07:43:59;3.93;;;3.53;;
3343;SDS011;1685;53.104;8.228;2022-07-23T07:46:26;6.43;;;3.73;;
3343;SDS011;1685;53.104;8.228;2022-07-23T07:48:54;5.50;;;3.93;;
3343;SDS011;1685;53.104;8.228;2022-07-23T07:51:21;6.07;;;4.00;;
3343;SDS011;1685;53.104;8.228;2022-07-23T07:53:47;3.67;;;3.10;;
3343;SDS011;1685;53.104;8.228;2022-07-23T07:56:14;7.90;;;3.50;;
3343;SDS011;1685;53.104;8.228;2022-07-23T07:58:42;4.70;;;3.57;;
3343;SDS011;1685;53.104;8.228;2022-07-23T08:01:09;4.73;;;3.40;;
3343;SDS011;1685;53.104;8.228;2022-07-23T08:03:36;6.97;;;3.13;;
3343;SDS011;1685;53.104;8.228;2022-07-23T08:06:03;7.90;;;2.50;;
3343;SDS011;1685;53.104;8.228;2022-07-23T08:08:30;2.93;;;2.43;;
3343;SDS011;1685;53.104;8.228;2022-07-23T08:10:57;2.80;;;2.17;;
3343;SDS011;1685;53.104;8.228;2022-07-23T08:13:23;2.50;;;2.40;;
3343;SDS011;1685;53.104;8.228;2022-07-23T08:15:51;2.70;;;2.07;;
3343;SDS011;1685;53.104;8.228;2022-07-23T08:18:19;3.90;;;2.00;;
3343;SDS011;1685;53.104;8.228;2022-07-23T08:20:45;2.30;;;2.10;;
3343;SDS011;1685;53.104;8.228;2022-07-23T08:23:12;2.73;;;2.23;;
3343;SDS011;1685;53.104;8.228;2022-07-23T08:25:40;2.63;;;1.80;;
3343;SDS011;1685;53.104;8.228;2022-07-23T08:28:08;2.23;;;1.70;;
3343;SDS011;1685;53.104;8.228;2022-07-23T08:30:36;3.93;;;1.90;;
3343;SDS011;1685;53.104;8.228;2022-07-23T08:33:06;4.10;;;1.77;;
3343;SDS011;1685;53.104;8.228;2022-07-23T08:35:36;2.20;;;1.57;;
3343;SDS011;1685;53.104;8.228;2022-07-23T08:38:05;3.63;;;1.80;;
3343;SDS011;1685;53.104;8.228;2022-07-23T08:40:33;3.20;;;1.50;;
3343;SDS011;1685;53.104;8.228;2022-07-23T08:43:03;1.90;;;1.10;;
3343;SDS011;1685;53.104;8.228;2022-07-23T08:45:35;1.00;;;0.97;;
3343;SDS011;1685;53.104;8.228;2022-07-23T08:48:05;1.83;;;1.20;;
3343;SDS011;1685;53.104;8.228;2022-07-23T08:50:34;1.27;;;1.27;;
3343;SDS011;1685;53.104;8.228;2022-07-23T08:53:04;5.93;;;1.50;;
3343;SDS011;1685;53.104;8.228;2022-07-23T08:55:33;1.43;;;0.90;;
3343;SDS011;1685;53.104;8.228;2022-07-23T08:58:00;1.23;;;1.07;;
3343;SDS011;1685;53.104;8.228;2022-07-23T09:00:27;2.43;;;1.30;;
3343;SDS011;1685;53.104;8.228;2022-07-23T09:02:54;1.33;;;1.00;;
3343;SDS011;1685;53.104;8.228;2022-07-23T09:05:23;4.00;;;1.10;;
3343;SDS011;1685;53.104;8.228;2022-07-23T09:08:03;1.33;;;1.03;;
3343;SDS011;1685;53.104;8.228;2022-07-23T09:10:34;1.43;;;0.70;;
3343;SDS011;1685;53.104;8.228;2022-07-23T09:13:17;1.00;;;1.00;;
3343;SDS011;1685;53.104;8.228;2022-07-23T09:15:50;0.80;;;0.80;;
3343;SDS011;1685;53.104;8.228;2022-07-23T09:18:17;1.97;;;0.90;;
3343;SDS011;1685;53.104;8.228;2022-07-23T09:20:45;1.33;;;1.00;;
3343;SDS011;1685;53.104;8.228;2022-07-23T09:23:12;2.40;;;1.00;;
3343;SDS011;1685;53.104;8.228;2022-07-23T09:25:39;0.80;;;0.80;;
3343;SDS011;1685;53.104;8.228;2022-07-23T09:28:06;2.00;;;1.03;;
3343;SDS011;1685;53.104;8.228;2022-07-23T09:30:33;2.77;;;1.00;;
3343;SDS011;1685;53.104;8.228;2022-07-23T09:33:04;1.20;;;1.00;;
3343;SDS011;1685;53.104;8.228;2022-07-23T09:35:49;1.13;;;1.00;;
3343;SDS011;1685;53.104;8.228;2022-07-23T09:38:17;1.30;;;1.20;;
3343;SDS011;1685;53.104;8.228;2022-07-23T09:40:45;1.20;;;0.77;;
3343;SDS011;1685;53.104;8.228;2022-07-23T09:43:12;1.37;;;0.97;;
3343;SDS011;1685;53.104;8.228;2022-07-23T09:45:39;0.80;;;0.80;;
3343;SDS011;1685;53.104;8.228;2022-07-23T09:48:10;1.83;;;0.97;;
3343;SDS011;1685;53.104;8.228;2022-07-23T09:50:37;1.10;;;0.90;;
3343;SDS011;1685;53.104;8.228;2022-07-23T09:53:06;3.03;;;1.00;;
3343;SDS011;1685;53.104;8.228;2022-07-23T09:55:33;1.83;;;0.90;;
3343;SDS011;1685;53.104;8.228;2022-07-23T09:58:02;0.93;;;0.80;;
3343;SDS011;1685;53.104;8.228;2022-07-23T10:00:30;0.80;;;0.70;;
3343;SDS011;1685;53.104;8.228;2022-07-23T10:02:58;0.80;;;0.80;;
3343;SDS011;1685;53.104;8.228;2022-07-23T10:05:25;2.40;;;1.03;;
3343;SDS011;1685;53.104;8.228;2022-07-23T10:07:53;2.97;;;1.00;;
3343;SDS011;1685;53.104;8.228;2022-07-23T10:10:22;0.90;;;0.70;;
3343;SDS011;1685;53.104;8.228;2022-07-23T10:12:52;1.07;;;0.93;;
3343;SDS011;1685;53.104;8.228;2022-07-23T10:15:38;0.70;;;0.70;;
3343;SDS011;1685;53.104;8.228;2022-07-23T10:18:06;0.83;;;0.73;;
3343;SDS011;1685;53.104;8.228;2022-07-23T10:20:33;0.90;;;0.70;;
3343;SDS011;1685;53.104;8.228;2022-07-23T10:23:02;1.13;;;1.03;;
3343;SDS011;1685;53.104;8.228;2022-07-23T10:25:39;1.73;;;1.03;;
3343;SDS011;1685;53.104;8.228;2022-07-23T10:28:29;2.00;;;0.90;;
3343;SDS011;1685;53.104;8.228;2022-07-23T10:31:17;1.40;;;0.90;;
3343;SDS011;1685;53.104;8.228;2022-07-23T10:34:02;1.57;;;0.93;;
3343;SDS011;1685;53.104;8.228;2022-07-23T10:36:39;0.80;;;0.80;;
3343;SDS011;1685;53.104;8.228;2022-07-23T10:39:11;2.80;;;1.10;;
3343;SDS011;1685;53.104;8.228;2022-07-23T10:41:42;1.70;;;0.80;;
3343;SDS011;1685;53.104;8.228;2022-07-23T10:44:09;0.90;;;0.90;;
3343;SDS011;1685;53.104;8.228;2022-07-23T10:46:53;0.87;;;0.87;;
3343;SDS011;1685;53.104;8.228;2022-07-23T10:49:26;1.27;;;1.00;;
3343;SDS011;1685;53.104;8.228;2022-07-23T10:54:44;1.30;;;0.90;;
3343;SDS011;1685;53.104;8.228;2022-07-23T10:57:13;1.10;;;0.77;;
3343;SDS011;1685;53.104;8.228;2022-07-23T11:02:44;2.40;;;0.80;;
3343;SDS011;1685;53.104;8.228;2022-07-23T11:05:12;1.40;;;0.80;;
3343;SDS011;1685;53.104;8.228;2022-07-23T11:10:53;4.83;;;0.87;;
3343;SDS011;1685;53.104;8.228;2022-07-23T11:13:27;0.90;;;0.90;;
3343;SDS011;1685;53.104;8.228;2022-07-23T11:16:05;2.30;;;0.87;;
3343;SDS011;1685;53.104;8.228;2022-07-23T11:18:55;1.00;;;0.90;;
3343;SDS011;1685;53.104;8.228;2022-07-23T11:21:42;1.37;;;0.80;;
3343;SDS011;1685;53.104;8.228;2022-07-23T11:24:13;2.20;;;0.90;;
3343;SDS011;1685;53.104;8.228;2022-07-23T11:26:45;1.40;;;0.80;;
3343;SDS011;1685;53.104;8.228;2022-07-23T11:35:21;0.77;;;0.77;;
3343;SDS011;1685;53.104;8.228;2022-07-23T11:37:50;4.20;;;0.70;;
3343;SDS011;1685;53.104;8.228;2022-07-23T11:40:23;1.10;;;0.87;;
3343;SDS011;1685;53.104;8.228;2022-07-23T11:42:52;1.10;;;1.00;;
3343;SDS011;1685;53.104;8.228;2022-07-23T11:45:29;2.50;;;0.70;;
3343;SDS011;1685;53.104;8.228;2022-07-23T11:47:58;3.70;;;1.03;;
3343;SDS011;1685;53.104;8.228;2022-07-23T11:50:25;1.27;;;1.00;;
3343;SDS011;1685;53.104;8.228;2022-07-23T11:52:52;4.13;;;1.10;;
3343;SDS011;1685;53.104;8.228;2022-07-23T11:55:19;1.00;;;0.90;;
3343;SDS011;1685;53.104;8.228;2022-07-23T11:57:46;1.73;;;1.13;;
3343;SDS011;1685;53.104;8.228;2022-07-23T12:00:15;0.90;;;0.90;;
3343;SDS011;1685;53.104;8.228;2022-07-23T12:02:44;0.80;;;0.80;;
3343;SDS011;1685;53.104;8.228;2022-07-23T12:05:12;2.93;;;1.10;;
3343;SDS011;1685;53.104;8.228;2022-07-23T12:07:40;1.60;;;0.87;;
3343;SDS011;1685;53.104;8.228;2022-07-23T12:10:10;3.63;;;0.97;;
3343;SDS011;1685;53.104;8.228;2022-07-23T12:12:39;0.90;;;0.90;;
3343;SDS011;1685;53.104;8.228;2022-07-23T12:15:08;0.97;;;0.90;;
3343;SDS011;1685;53.104;8.228;2022-07-23T12:17:36;3.43;;;1.03;;
3343;SDS011;1685;53.104;8.228;2022-07-23T12:20:06;1.83;;;0.90;;
3343;SDS011;1685;53.104;8.228;2022-07-23T12:22:36;1.57;;;0.90;;
3343;SDS011;1685;53.104;8.228;2022-07-23T12:25:06;1.00;;;0.90;;
3343;SDS011;1685;53.104;8.228;2022-07-23T12:27:34;1.67;;;0.90;;
3343;SDS011;1685;53.104;8.228;2022-07-23T12:30:17;1.73;;;0.70;;
3343;SDS011;1685;53.104;8.228;2022-07-23T12:32:45;5.13;;;2.60;;
3343;SDS011;1685;53.104;8.228;2022-07-23T12:35:14;1.53;;;0.80;;
3343;SDS011;1685;53.104;8.228;2022-07-23T12:37:42;1.07;;;0.80;;
3343;SDS011;1685;53.104;8.228;2022-07-23T12:40:19;2.43;;;1.10;;
3343;SDS011;1685;53.104;8.228;2022-07-23T12:42:56;2.90;;;0.70;;
3343;SDS011;1685;53.104;8.228;2022-07-23T12:45:25;2.10;;;0.90;;
3343;SDS011;1685;53.104;8.228;2022-07-23T12:47:54;1.03;;;0.93;;
3343;SDS011;1685;53.104;8.228;2022-07-23T12:50:39;1.00;;;0.80;;
3343;SDS011;1685;53.104;8.228;2022-07-23T12:53:09;3.60;;;1.07;;
3343;SDS011;1685;53.104;8.228;2022-07-23T12:55:38;1.00;;;0.90;;
3343;SDS011;1685;53.104;8.228;2022-07-23T12:58:15;0.80;;;0.80;;
3343;SDS011;1685;53.104;8.228;2022-07-23T13:00:51;2.60;;;1.13;;
3343;SDS011;1685;53.104;8.228;2022-07-23T13:03:23;0.90;;;0.90;;
3343;SDS011;1685;53.104;8.228;2022-07-23T13:05:52;0.80;;;0.80;;
3343;SDS011;1685;53.104;8.228;2022-07-23T13:08:20;2.40;;;1.00;;
3343;SDS011;1685;53.104;8.228;2022-07-23T13:10:47;0.90;;;0.90;;
3343;SDS011;1685;53.104;8.228;2022-07-23T13:13:16;2.03;;;1.03;;
3343;SDS011;1685;53.104;8.228;2022-07-23T13:15:43;1.80;;;0.97;;
3343;SDS011;1685;53.104;8.228;2022-07-23T13:18:10;0.80;;;0.70;;
3343;SDS011;1685;53.104;8.228;2022-07-23T13:20:37;1.00;;;0.87;;
3343;SDS011;1685;53.104;8.228;2022-07-23T13:23:06;0.97;;;0.97;;
3343;SDS011;1685;53.104;8.228;2022-07-23T13:25:33;0.90;;;0.90;;
3343;SDS011;1685;53.104;8.228;2022-07-23T13:28:00;1.00;;;1.00;;
3343;SDS011;1685;53.104;8.228;2022-07-23T13:30:28;1.20;;;0.90;;
3343;SDS011;1685;53.104;8.228;2022-07-23T13:32:55;2.40;;;1.33;;
3343;SDS011;1685;53.104;8.228;2022-07-23T13:35:22;1.10;;;1.00;;
3343;SDS011;1685;53.104;8.228;2022-07-23T13:37:49;1.63;;;0.90;;
3343;SDS011;1685;53.104;8.228;2022-07-23T13:40:18;1.50;;;0.97;;
3343;SDS011;1685;53.104;8.228;2022-07-23T13:42:45;1.37;;;1.07;;
3343;SDS011;1685;53.104;8.228;2022-07-23T13:45:12;0.90;;;0.90;;
3343;SDS011;1685;53.104;8.228;2022-07-23T13:47:39;1.27;;;1.00;;
3343;SDS011;1685;53.104;8.228;2022-07-23T13:50:06;1.20;;;0.90;;
3343;SDS011;1685;53.104;8.228;2022-07-23T13:52:33;1.30;;;0.90;;
3343;SDS011;1685;53.104;8.228;2022-07-23T13:55:00;2.60;;;1.07;;
3343;SDS011;1685;53.104;8.228;2022-07-23T13:57:30;1.13;;;0.77;;
3343;SDS011;1685;53.104;8.228;2022-07-23T13:59:57;1.10;;;1.00;;
3343;SDS011;1685;53.104;8.228;2022-07-23T14:02:24;1.83;;;1.43;;
3343;SDS011;1685;53.104;8.228;2022-07-23T14:04:51;1.27;;;0.90;;
3343;SDS011;1685;53.104;8.228;2022-07-23T14:07:18;1.27;;;1.10;;
3343;SDS011;1685;53.104;8.228;2022-07-23T14:09:46;1.20;;;1.10;;
3343;SDS011;1685;53.104;8.228;2022-07-23T14:12:13;1.53;;;0.87;;
3343;SDS011;1685;53.104;8.228;2022-07-23T14:14:41;0.80;;;0.80;;
3343;SDS011;1685;53.104;8.228;2022-07-23T14:17:09;0.80;;;0.80;;
3343;SDS011;1685;53.104;8.228;2022-07-23T14:19:36;1.00;;;0.90;;
3343;SDS011;1685;53.104;8.228;2022-07-23T14:22:03;5.60;;;1.40;;
3343;SDS011;1685;53.104;8.228;2022-07-23T14:24:30;5.23;;;1.03;;
3343;SDS011;1685;53.104;8.228;2022-07-23T14:26:57;2.03;;;1.20;;
3343;SDS011;1685;53.104;8.228;2022-07-23T14:29:26;1.77;;;1.37;;
3343;SDS011;1685;53.104;8.228;2022-07-23T14:31:54;0.80;;;0.80;;
3343;SDS011;1685;53.104;8.228;2022-07-23T14:34:21;1.50;;;0.80;;
3343;SDS011;1685;53.104;8.228;2022-07-23T14:36:48;1.57;;;1.50;;
3343;SDS011;1685;53.104;8.228;2022-07-23T14:39:15;1.27;;;1.27;;
3343;SDS011;1685;53.104;8.228;2022-07-23T14:41:42;1.27;;;1.27;;
3343;SDS011;1685;53.104;8.228;2022-07-23T14:44:09;1.07;;;1.07;;
3343;SDS011;1685;53.104;8.228;2022-07-23T14:46:36;1.43;;;1.10;;
3343;SDS011;1685;53.104;8.228;2022-07-23T14:49:05;2.40;;;1.20;;
3343;SDS011;1685;53.104;8.228;2022-07-23T14:51:32;1.93;;;1.20;;
3343;SDS011;1685;53.104;8.228;2022-07-23T14:53:59;1.00;;;1.00;;
3343;SDS011;1685;53.104;8.228;2022-07-23T14:56:26;2.67;;;1.20;;
3343;SDS011;1685;53.104;8.228;2022-07-23T14:58:54;3.17;;;1.20;;
3343;SDS011;1685;53.104;8.228;2022-07-23T15:01:21;2.73;;;1.27;;
3343;SDS011;1685;53.104;8.228;2022-07-23T15:03:48;4.30;;;1.40;;
3343;SDS011;1685;53.104;8.228;2022-07-23T15:06:17;10.00;;;1.50;;
3343;SDS011;1685;53.104;8.228;2022-07-23T15:08:44;1.13;;;1.03;;
3343;SDS011;1685;53.104;8.228;2022-07-23T15:11:11;1.40;;;1.07;;
3343;SDS011;1685;53.104;8.228;2022-07-23T15:13:38;1.83;;;1.10;;
3343;SDS011;1685;53.104;8.228;2022-07-23T15:16:05;1.13;;;1.03;;
3343;SDS011;1685;53.104;8.228;2022-07-23T15:18:33;3.60;;;1.23;;
3343;SDS011;1685;53.104;8.228;2022-07-23T15:21:00;1.57;;;1.13;;
3343;SDS011;1685;53.104;8.228;2022-07-23T15:23:28;3.10;;;1.13;;
3343;SDS011;1685;53.104;8.228;2022-07-23T15:25:55;3.80;;;1.30;;
3343;SDS011;1685;53.104;8.228;2022-07-23T15:28:22;1.10;;;1.10;;
3343;SDS011;1685;53.104;8.228;2022-07-23T15:30:50;1.60;;;1.23;;
3343;SDS011;1685;53.104;8.228;2022-07-23T15:33:17;1.73;;;1.30;;
3343;SDS011;1685;53.104;8.228;2022-07-23T15:35:44;2.00;;;1.63;;